Colchester, United Kingdom
Current Conditions -  °F | °C
As of 8:50 AM on Friday 19 Dec 2014 (Local Time) from EGUW Reporting Station
Scattered Clouds Scattered Clouds  
Wind Chill: 40°   Ceiling: Unl
Heat Index: 46°   Visibility: 6mi
Dew Point: 41°   Wind: 14mph
Humidity: 81%   Direction: 300°WNW
Pressure: 29.85"   Gusts: NA
Location:  51.89°N, 0.9°E
Report Text: EGUW 190850Z 30012KT 9999 FEW012 SCT038 08/05 Q1011 BLU NOSIG
Loading
Personal Weather Stations






























Interactive Weather Map New forecast layout! Learn more

10-Day Weather Forecast

Advertisements
Track Severe Weather on mobile